createdAt,value
2023-01-29T00:02:07.690Z,527.88
2023-01-29T00:04:34.331Z,526.13
2023-01-29T00:07:00.960Z,528.67
2023-01-29T00:09:28.555Z,528.05
2023-01-29T00:11:55.132Z,537.30
2023-01-29T00:14:21.827Z,531.42
2023-01-29T00:16:48.567Z,529.03
2023-01-29T00:19:15.244Z,537.23
2023-01-29T00:21:41.884Z,536.10
2023-01-29T00:24:08.590Z,543.70
2023-01-29T00:26:35.338Z,541.47
2023-01-29T00:29:02.627Z,537.45
2023-01-29T05:31:26.537Z,531.17
2023-01-29T05:33:53.211Z,525.45
2023-01-29T05:36:19.900Z,531.83
2023-01-29T05:38:46.543Z,521.92
2023-01-29T05:41:13.174Z,527.23
2023-01-29T05:43:39.763Z,514.92
2023-01-29T05:46:07.494Z,513.55
2023-01-29T05:48:34.210Z,510.48
2023-01-29T05:51:02.191Z,505.50
2023-01-29T05:53:29.525Z,511.92
2023-01-29T05:55:58.912Z,509.80
2023-01-29T05:58:25.588Z,509.15
2023-01-29T06:00:52.176Z,511.75
2023-01-29T06:03:18.971Z,513.58
2023-01-29T06:05:45.676Z,519.58
2023-01-29T06:08:13.219Z,516.72
2023-01-29T06:10:39.993Z,505.00
2023-01-29T06:13:07.058Z,507.35
2023-01-29T06:15:33.673Z,504.60
2023-01-29T06:18:00.251Z,506.38
2023-01-29T06:20:27.000Z,505.47
2023-01-29T06:22:53.645Z,510.17
2023-01-29T06:25:20.302Z,506.02
2023-01-29T06:27:50.942Z,505.38
2023-01-29T06:30:17.932Z,504.50
2023-01-29T06:32:44.932Z,503.38
2023-01-29T06:35:11.575Z,501.77
2023-01-29T06:37:38.259Z,497.90
2023-01-29T06:40:05.307Z,494.67
2023-01-29T06:42:32.025Z,494.73
2023-01-29T06:44:58.670Z,498.75
2023-01-29T06:47:27.007Z,496.23
2023-01-29T06:49:53.676Z,503.00
2023-01-29T06:52:20.288Z,493.38
2023-01-29T06:54:47.358Z,497.52
2023-01-29T06:57:14.060Z,487.33
2023-01-29T06:59:40.710Z,489.00
2023-01-29T07:02:07.378Z,493.90
2023-01-29T07:04:35.505Z,494.63
2023-01-29T07:07:02.198Z,500.85
2023-01-29T07:09:28.858Z,501.43
2023-01-29T07:11:55.507Z,502.13
2023-01-29T07:14:22.129Z,504.98
2023-01-29T07:16:48.781Z,502.23
2023-01-29T07:19:15.608Z,505.73
2023-01-29T07:21:42.249Z,498.65
2023-01-29T07:24:09.437Z,502.90
2023-01-29T07:26:36.138Z,503.33
2023-01-29T07:29:05.022Z,510.13
2023-01-29T07:31:31.789Z,505.23
2023-01-29T07:33:58.438Z,517.58
2023-01-29T07:36:25.205Z,511.58
2023-01-29T07:38:52.048Z,508.53
2023-01-29T07:41:19.124Z,508.08
2023-01-29T07:43:45.818Z,510.83
2023-01-29T07:46:12.494Z,513.35
2023-01-29T07:48:39.137Z,510.70
2023-01-29T07:51:06.339Z,513.63
2023-01-29T07:53:33.034Z,511.40
2023-01-29T07:55:59.767Z,517.42
2023-01-29T07:58:26.447Z,510.35
2023-01-29T08:00:53.098Z,516.83
2023-01-29T08:03:20.762Z,508.85
2023-01-29T08:05:48.262Z,510.63
2023-01-29T08:08:15.211Z,510.13
2023-01-29T08:10:42.492Z,507.73
2023-01-29T08:13:09.393Z,509.23
2023-01-29T08:15:38.755Z,520.92
2023-01-29T08:18:06.574Z,524.40
2023-01-29T08:20:33.302Z,519.78
2023-01-29T08:23:07.911Z,524.90
2023-01-29T08:25:35.998Z,521.97
2023-01-29T08:28:02.718Z,522.45
2023-01-29T08:30:31.736Z,521.42
2023-01-29T08:32:58.723Z,526.70
2023-01-29T08:35:26.489Z,526.05
2023-01-29T08:37:59.260Z,526.35
2023-01-29T08:40:26.925Z,527.90
2023-01-29T08:42:58.237Z,535.55
2023-01-29T08:45:27.364Z,529.50
2023-01-29T08:47:54.013Z,534.72
2023-01-29T08:50:20.702Z,527.60
2023-01-29T08:52:47.340Z,526.30
2023-01-29T08:55:14.575Z,535.35
2023-01-29T08:57:41.398Z,534.90
2023-01-29T09:00:09.971Z,530.03
2023-01-29T09:02:37.625Z,525.97
2023-01-29T09:05:04.651Z,528.47
2023-01-29T09:07:31.345Z,531.05
2023-01-29T09:09:57.999Z,538.83
2023-01-29T09:12:24.888Z,535.85
2023-01-29T09:14:51.681Z,533.90
2023-01-29T09:17:18.383Z,540.35
2023-01-29T09:19:45.004Z,537.83
2023-01-29T09:22:12.005Z,546.05
2023-01-29T09:24:38.915Z,548.27
2023-01-29T09:27:06.125Z,548.47
2023-01-29T09:29:35.498Z,549.47
2023-01-29T09:32:03.716Z,533.92
2023-01-29T09:34:30.383Z,547.63
2023-01-29T09:36:57.172Z,549.15
2023-01-29T09:39:23.841Z,544.80
2023-01-29T09:42:03.947Z,549.57
2023-01-29T09:45:02.602Z,540.95
2023-01-29T09:47:31.854Z,546.90
2023-01-29T09:50:05.732Z,534.78
2023-01-29T09:52:37.234Z,533.30
2023-01-29T09:55:19.612Z,531.13
2023-01-29T09:57:52.426Z,529.92
2023-01-29T10:00:25.211Z,539.63
2023-01-29T10:02:51.836Z,537.65
2023-01-29T10:05:55.261Z,541.40
2023-01-29T10:08:43.903Z,533.63
2023-01-29T10:11:45.921Z,537.30
2023-01-29T10:14:24.225Z,548.17
2023-01-29T10:17:28.028Z,545.63
2023-01-29T10:20:20.657Z,547.65
2023-01-29T10:23:07.389Z,545.30
2023-01-29T10:25:39.319Z,546.92
2023-01-29T10:28:17.704Z,543.78
2023-01-29T10:30:54.700Z,548.53
2023-01-29T10:33:49.140Z,549.03
2023-01-29T10:36:32.066Z,554.97
2023-01-29T10:38:58.810Z,553.03
2023-01-29T10:41:40.518Z,547.07
2023-01-29T10:44:37.780Z,551.92
2023-01-29T10:47:23.033Z,552.20
2023-01-29T10:50:08.226Z,552.25
2023-01-29T10:53:16.495Z,552.10
2023-01-29T10:56:13.914Z,553.38
2023-01-29T10:58:54.780Z,551.00
2023-01-29T11:01:21.460Z,550.72
2023-01-29T11:04:06.244Z,551.75
2023-01-29T11:06:34.327Z,559.00
2023-01-29T11:09:39.175Z,554.80
2023-01-29T11:12:10.155Z,552.67
2023-01-29T11:14:56.759Z,556.10
2023-01-29T11:17:25.786Z,553.38
2023-01-29T11:19:57.305Z,556.63
2023-01-29T11:22:28.844Z,557.95
2023-01-29T11:25:32.644Z,555.50
2023-01-29T11:28:01.880Z,556.15
2023-01-29T11:30:39.533Z,553.08
2023-01-29T11:33:18.336Z,558.00
2023-01-29T11:35:45.338Z,554.75
2023-01-29T11:38:28.985Z,547.30
2023-01-29T11:41:18.758Z,555.40
2023-01-29T11:43:45.361Z,549.33
2023-01-29T11:46:14.666Z,551.83
2023-01-29T11:48:58.971Z,553.75
2023-01-29T11:51:29.702Z,552.00
2023-01-29T11:54:01.027Z,548.72
2023-01-29T11:56:34.108Z,548.85
2023-01-29T11:59:04.471Z,547.38
2023-01-29T12:01:40.804Z,549.90
2023-01-29T12:04:23.663Z,554.58
2023-01-29T12:06:53.066Z,549.95
2023-01-29T12:09:23.274Z,553.33
2023-01-29T12:11:50.024Z,552.67
2023-01-29T12:14:24.898Z,559.00
2023-01-29T12:16:57.066Z,559.35
2023-01-29T12:19:44.056Z,560.60
2023-01-29T12:22:22.489Z,553.17
2023-01-29T12:25:01.874Z,546.80
2023-01-29T12:27:56.983Z,552.28
2023-01-29T12:30:42.074Z,554.58
2023-01-29T12:33:23.888Z,565.88
2023-01-29T12:35:57.937Z,556.28
2023-01-29T12:38:24.545Z,558.90
2023-01-29T12:41:07.832Z,557.10
2023-01-29T12:43:44.483Z,566.70
2023-01-29T12:46:24.070Z,567.85
2023-01-29T12:48:53.485Z,564.45
2023-01-29T12:51:25.434Z,563.92
2023-01-29T12:54:07.346Z,562.67
2023-01-29T12:56:47.106Z,559.45
2023-01-29T12:59:36.356Z,569.90
2023-01-29T13:02:23.806Z,571.83
2023-01-29T13:05:23.494Z,585.97
2023-01-29T13:08:05.123Z,590.17
2023-01-29T13:10:52.059Z,572.17
2023-01-29T13:13:54.121Z,574.42
2023-01-29T13:16:25.901Z,559.90
2023-01-29T13:19:05.076Z,554.10
2023-01-29T13:21:42.198Z,551.72
2023-01-29T13:24:15.048Z,541.08
2023-01-29T13:26:45.652Z,536.28
2023-01-29T13:29:25.980Z,540.05
2023-01-29T13:31:54.933Z,547.17
2023-01-29T13:34:25.806Z,533.25
2023-01-29T13:36:56.802Z,543.47
2023-01-29T13:39:37.805Z,541.83
2023-01-29T13:42:19.290Z,539.28
2023-01-29T13:44:56.099Z,544.67
2023-01-29T13:47:29.198Z,542.38
2023-01-29T13:50:18.877Z,546.60
2023-01-29T13:52:52.330Z,545.90
2023-01-29T13:55:19.287Z,548.13
2023-01-29T13:57:46.121Z,550.03
2023-01-29T14:00:21.480Z,571.58
2023-01-29T14:03:00.459Z,574.22
2023-01-29T14:05:29.902Z,574.30
2023-01-29T14:08:00.830Z,558.10
2023-01-29T14:10:32.995Z,556.13
2023-01-29T14:13:11.618Z,535.30
2023-01-29T14:15:41.790Z,536.28
2023-01-29T14:18:08.391Z,537.80
2023-01-29T14:20:48.254Z,540.58
2023-01-29T14:23:28.701Z,531.78
2023-01-29T14:25:56.222Z,534.50
2023-01-29T14:28:25.891Z,517.83
2023-01-29T14:30:53.178Z,519.05
2023-01-29T14:33:31.829Z,508.70
2023-01-29T14:35:59.785Z,515.50
2023-01-29T14:38:29.148Z,509.73
2023-01-29T14:41:15.215Z,493.90
2023-01-29T14:43:42.053Z,504.92
2023-01-29T14:46:45.831Z,504.45
2023-01-29T14:49:12.577Z,506.50
2023-01-29T14:51:43.173Z,505.13
2023-01-29T14:54:26.198Z,514.70
2023-01-29T14:57:00.898Z,524.25
2023-01-29T14:59:30.778Z,518.25
2023-01-29T15:02:01.406Z,522.10
2023-01-29T15:04:34.961Z,524.90
2023-01-29T15:07:07.049Z,536.40
2023-01-29T15:09:48.432Z,539.00
2023-01-29T15:12:42.560Z,540.50
2023-01-29T15:15:24.149Z,541.67
2023-01-29T15:18:14.701Z,533.55
2023-01-29T15:20:42.733Z,537.53
2023-01-29T15:23:43.137Z,529.75
2023-01-29T15:26:22.351Z,534.97
2023-01-29T15:29:03.432Z,534.05
2023-01-29T15:31:31.987Z,530.88
2023-01-29T15:34:05.174Z,528.75
2023-01-29T15:36:32.744Z,529.00
2023-01-29T15:39:19.129Z,528.40
2023-01-29T15:41:46.157Z,530.03
2023-01-29T15:44:23.323Z,530.67
2023-01-29T15:46:53.797Z,527.17
2023-01-29T15:49:33.344Z,533.00
2023-01-29T15:52:04.550Z,531.40
2023-01-29T15:54:33.569Z,528.03
2023-01-29T15:57:01.517Z,528.92
2023-01-29T15:59:44.029Z,521.28
2023-01-29T16:02:35.507Z,518.80
2023-01-29T16:05:02.823Z,516.40
2023-01-29T16:07:30.512Z,504.23
2023-01-29T16:09:58.784Z,502.83
2023-01-29T16:12:25.621Z,512.53
2023-01-29T16:14:52.554Z,506.20
2023-01-29T16:17:27.270Z,519.85
2023-01-29T16:20:01.667Z,511.45
2023-01-29T16:22:36.898Z,516.53
2023-01-29T16:25:14.719Z,524.40
2023-01-29T16:27:43.605Z,516.20
2023-01-29T16:30:15.811Z,522.78
2023-01-29T16:32:42.530Z,515.45
2023-01-29T16:35:16.558Z,518.47
2023-01-29T16:37:48.512Z,520.60
2023-01-29T16:40:27.895Z,517.35
2023-01-29T16:43:18.592Z,519.60
2023-01-29T16:46:04.536Z,514.28
2023-01-29T16:48:33.775Z,510.02
2023-01-29T16:51:14.664Z,512.70
2023-01-29T16:53:59.872Z,511.13
2023-01-29T16:56:30.325Z,508.38
2023-01-29T16:58:57.971Z,514.10
2023-01-29T17:01:27.139Z,517.50
2023-01-29T17:04:05.719Z,517.03
2023-01-29T17:06:33.216Z,510.60
2023-01-29T17:09:00.436Z,511.83
2023-01-29T17:11:37.474Z,507.58
2023-01-29T17:14:07.122Z,512.77
2023-01-29T17:16:37.439Z,506.48
2023-01-29T17:19:17.890Z,510.88
2023-01-29T17:21:44.675Z,502.85
2023-01-29T17:24:11.507Z,501.55
2023-01-29T17:26:39.181Z,511.05
2023-01-29T17:29:08.181Z,504.20
2023-01-29T17:31:34.879Z,506.73
2023-01-29T17:34:01.602Z,523.72
2023-01-29T17:36:28.174Z,505.40
2023-01-29T17:38:54.858Z,508.13
2023-01-29T17:41:33.084Z,496.58
2023-01-29T17:43:59.722Z,492.83
2023-01-29T17:46:27.513Z,481.35
2023-01-29T17:48:54.112Z,482.40
2023-01-29T17:51:21.019Z,480.02
2023-01-29T17:53:48.504Z,476.88
2023-01-29T17:56:29.686Z,470.77
2023-01-29T17:58:56.448Z,477.25
2023-01-29T18:01:23.108Z,475.58
2023-01-29T18:03:49.789Z,490.17
2023-01-29T18:06:27.136Z,477.90
2023-01-29T18:08:53.829Z,482.73
2023-01-29T18:11:20.496Z,492.45
2023-01-29T18:13:47.142Z,491.08
2023-01-29T18:16:13.788Z,490.52
2023-01-29T18:18:40.479Z,479.95
2023-01-29T18:21:07.955Z,477.98
2023-01-29T18:23:34.643Z,491.05
2023-01-29T18:26:01.282Z,487.52
2023-01-29T18:28:27.853Z,502.98
2023-01-29T18:30:54.475Z,502.58
2023-01-29T18:33:21.264Z,502.30
2023-01-29T18:35:48.202Z,499.20
2023-01-29T18:38:14.911Z,497.33
2023-01-29T18:40:41.678Z,511.05
2023-01-29T18:43:08.567Z,506.75
2023-01-29T18:45:35.785Z,504.67
2023-01-29T18:48:02.446Z,507.10
2023-01-29T18:50:29.135Z,509.05
2023-01-29T18:52:55.840Z,506.98
2023-01-29T18:55:23.594Z,503.80
2023-01-29T18:58:26.976Z,504.92
2023-01-29T19:00:43.693Z,503.42
2023-01-29T19:03:11.199Z,497.87
2023-01-29T19:05:37.898Z,504.73
2023-01-29T19:08:05.880Z,505.83
2023-01-29T19:10:33.262Z,503.20
2023-01-29T19:13:00.081Z,504.42
2023-01-29T19:15:26.872Z,515.30
2023-01-29T19:17:53.807Z,515.33
2023-01-29T19:20:20.771Z,517.72
2023-01-29T19:22:47.495Z,510.02
2023-01-29T19:25:14.346Z,508.95
2023-01-29T19:27:41.222Z,515.00
2023-01-29T19:30:08.769Z,521.38
2023-01-29T19:32:35.453Z,520.50
2023-01-29T19:35:02.250Z,510.98
2023-01-29T19:37:30.800Z,502.40
2023-01-29T19:39:57.468Z,504.02
2023-01-29T19:42:24.130Z,506.30
2023-01-29T19:44:52.008Z,507.35
2023-01-29T19:47:18.888Z,508.33
2023-01-29T19:49:45.559Z,508.83
2023-01-29T19:52:41.447Z,513.60
2023-01-29T19:55:16.536Z,507.10
2023-01-29T19:57:43.289Z,505.65
2023-01-29T20:00:11.953Z,502.20
2023-01-29T20:02:38.779Z,504.33
2023-01-29T20:05:07.013Z,505.50
2023-01-29T20:07:35.834Z,503.63
2023-01-29T20:10:02.619Z,503.38
2023-01-29T20:12:29.825Z,499.38
2023-01-29T20:14:56.718Z,498.77
2023-01-29T20:17:23.497Z,502.35
2023-01-29T20:19:50.131Z,492.13
2023-01-29T20:22:16.775Z,481.73
2023-01-29T20:24:43.640Z,466.88
2023-01-29T20:27:10.798Z,472.30
2023-01-29T20:29:38.979Z,474.08
2023-01-29T20:32:07.838Z,470.73
2023-01-29T20:34:35.157Z,470.00
2023-01-29T20:37:02.011Z,474.73
2023-01-29T20:39:28.645Z,471.23
2023-01-29T20:41:57.154Z,474.17
2023-01-29T20:44:24.796Z,466.98
2023-01-29T20:46:51.739Z,465.23
2023-01-29T20:49:18.453Z,462.38
2023-01-29T20:51:45.935Z,457.65
2023-01-29T20:54:12.661Z,456.55
2023-01-29T20:56:45.359Z,450.40
2023-01-29T20:59:13.695Z,449.58
2023-01-29T21:01:41.021Z,446.00
2023-01-29T21:04:07.792Z,438.05
2023-01-29T21:06:34.513Z,439.25
2023-01-29T21:09:01.160Z,434.48
2023-01-29T21:11:28.518Z,442.17
2023-01-29T21:13:57.764Z,436.95
2023-01-29T21:16:26.220Z,447.52
2023-01-29T21:18:56.528Z,439.88
2023-01-29T21:21:23.469Z,447.15
2023-01-29T21:23:50.116Z,447.70
2023-01-29T21:26:16.958Z,445.92
2023-01-29T21:28:43.606Z,443.17
2023-01-29T21:31:12.617Z,446.55
2023-01-29T21:33:39.185Z,447.75
2023-01-29T21:36:06.789Z,439.92
2023-01-29T21:38:33.503Z,442.83
2023-01-29T21:41:05.224Z,446.50
2023-01-29T21:43:31.832Z,443.50
2023-01-29T21:46:00.223Z,437.47
2023-01-29T21:48:27.069Z,443.30
2023-01-29T21:50:53.812Z,436.88
2023-01-29T21:53:20.514Z,440.33
2023-01-29T21:55:47.468Z,444.52
2023-01-29T21:58:14.734Z,438.85
2023-01-29T22:00:41.544Z,437.58
2023-01-29T22:03:08.344Z,441.80
2023-01-29T22:05:35.184Z,445.98
2023-01-29T22:08:02.403Z,444.55
2023-01-29T22:10:30.542Z,437.73
2023-01-29T22:13:00.893Z,446.58
2023-01-29T22:15:27.732Z,443.02
2023-01-29T22:17:54.492Z,440.00
2023-01-29T22:20:25.621Z,436.15
2023-01-29T22:22:52.241Z,443.00
2023-01-29T22:25:20.089Z,436.10
2023-01-29T22:27:46.966Z,428.23
2023-01-29T22:30:13.795Z,427.97
2023-01-29T22:32:40.481Z,428.55
2023-01-29T22:35:07.545Z,432.27
2023-01-29T22:37:34.227Z,434.20
2023-01-29T22:40:00.860Z,434.23
2023-01-29T22:42:27.928Z,428.38
2023-01-29T22:44:54.527Z,431.80
2023-01-29T22:47:21.183Z,427.25
2023-01-29T22:49:49.953Z,430.87
2023-01-29T22:52:20.262Z,428.50
2023-01-29T22:54:46.871Z,423.38
2023-01-29T22:57:15.258Z,429.30
2023-01-29T22:59:41.884Z,428.03
2023-01-29T23:02:09.198Z,427.08
2023-01-29T23:04:35.936Z,422.90
2023-01-29T23:07:03.259Z,421.02
2023-01-29T23:09:29.902Z,422.60
2023-01-29T23:11:56.561Z,426.33
2023-01-29T23:14:23.229Z,427.63
2023-01-29T23:16:49.820Z,426.03
2023-01-29T23:19:16.506Z,429.58
2023-01-29T23:21:43.463Z,431.10
2023-01-29T23:24:10.592Z,429.13
2023-01-29T23:26:55.689Z,426.75
2023-01-29T23:29:22.336Z,432.92
2023-01-29T23:31:49.062Z,423.20
2023-01-29T23:34:15.771Z,423.77
2023-01-29T23:36:42.728Z,424.60
2023-01-29T23:39:09.608Z,419.93
2023-01-29T23:41:36.376Z,419.52
2023-01-29T23:44:03.212Z,417.88
2023-01-29T23:46:30.248Z,420.73
2023-01-29T23:48:56.859Z,425.33
2023-01-29T23:51:23.505Z,427.20
2023-01-29T23:53:50.298Z,428.37
2023-01-29T23:56:16.935Z,426.15
2023-01-29T23:58:44.730Z,431.10
